Friday, January 19, 2018, 10:35 PM EST
Back to Local

KCXY, Harrisburg Capital City

Location: New Cumberland, PA, United States Lat: 40.217
Local Time: 10:35 PM EST ( 3:35 GMT) Lon: -76.85
Time Zone: US/Eastern Elev: 347 ft

Show me the last for .
Show Coded

Time T Td Feel RH Dir Speed Gust Alt SLP Vis Weather Sky Remarks
2018-01-19 21:56 28 22 - 77 - Calm - 30.00 30.01 10 CLR None
2018-01-19 20:56 31 21 - 66 - Calm - 30.00 30.01 10 CLR None
2018-01-19 19:56 38 20 34 47 290° 5 - 30.00 30.02 10 CLR None
2018-01-19 18:56 40 20 36 44 280° 6 - 30.00 30.02 10 CLR 6-hr Min Temp (7pm): 39.9°F
6-hr Max Temp (7pm): 46.0°F
2018-01-19 17:56 43 19 41 37 290° 3 - 30.00 30.01 10 CLR None
2018-01-19 16:56 43 21 39 41 240° 6 - 30.00 30.01 10 CLR None
2018-01-19 15:56 45 21 43 38 250° 5 - 29.99 30.01 10 CLR None
2018-01-19 14:56 44 20 40 37 270° 8 - 29.99 30.01 10 CLR None
2018-01-19 13:56 42 19 36 39 260° 12 - 30.01 30.03 10 CLR None
2018-01-19 12:56 40 19 33 42 250° 10 - 30.03 30.04 10 CLR 6-hr Min Temp (1pm): 19.9°F
6-hr Max Temp (1pm): 39.9°F
2018-01-19 11:56 39 17 32 40 260° 12 - 30.06 30.08 10 CLR None
2018-01-19 10:56 37 17 32 43 260° 6 - 30.09 30.10 10 CLR None
2018-01-19 09:56 33 17 28 51 300° 6 - 30.10 30.11 10 CLR None
2018-01-19 08:56 25 16 21 68 330° 3 - 30.09 30.11 10 CLR None
2018-01-19 07:56 21 14 16 73 110° 3 - 30.08 30.10 10 CLR None
2018-01-19 06:56 20 14 - 77 - Calm - 30.08 30.10 10 CLR 6-hr Min Temp (7am): 15.1°F
6-hr Max Temp (7am): 21.0°F
2018-01-19 05:56 18 14 - 84 - Calm - 30.07 30.09 9 CLR None
2018-01-19 04:56 19 11 - 70 - Calm - 30.07 30.08 10 CLR None
2018-01-19 03:56 18 12 - 77 - Calm - 30.06 30.07 10 CLR None
2018-01-19 02:56 17 11 12 76 280° 3 - 30.06 30.07 10 CLR None
2018-01-19 01:56 21 13 16 70 220° 3 - 30.05 30.06 10 CLR None
2018-01-19 00:56 20 12 - 70 - Calm - 30.05 30.07 10 CLR 6-hr Min Temp (1am): 19.9°F
6-hr Max Temp (1am): 33.1°F
2018-01-18 23:56 21 13 16 70 240° 3 - 30.07 30.09 10 CLR 24-hr Min Temp (12am): 10.9°F
24-hr Max Temp (12am): 39.0°F
2018-01-18 22:56 23 14 - 67 - Calm - 30.08 30.10 10 CLR None

Support USWX by starting your Amazon purchase here.